createdAt,value
2022-07-31T00:02:54.787Z,100367.78
2022-07-31T00:07:56.616Z,100363.59
2022-07-31T00:12:58.013Z,100362.31
2022-07-31T00:18:00.327Z,100371.53
2022-07-31T00:23:01.689Z,100365.69
2022-07-31T00:28:03.731Z,100356.88
2022-07-31T00:33:05.156Z,100343.94
2022-07-31T00:38:26.289Z,100353.56
2022-07-31T00:43:30.664Z,100349.41
2022-07-31T00:48:33.562Z,100343.13
2022-07-31T00:53:34.939Z,100345.44
2022-07-31T00:58:36.332Z,100349.81
2022-07-31T01:03:37.740Z,100345.22
2022-07-31T01:08:39.934Z,100337.09
2022-07-31T01:13:48.972Z,100336.06
2022-07-31T01:18:52.381Z,100339.38
2022-07-31T01:24:02.685Z,100330.22
2022-07-31T01:29:09.853Z,100331.84
2022-07-31T01:34:34.029Z,100322.69
2022-07-31T01:39:37.302Z,100327.59
2022-07-31T01:44:41.329Z,100332.09
2022-07-31T01:49:44.992Z,100322.88
2022-07-31T01:54:47.343Z,100328.50
2022-07-31T01:59:51.264Z,100327.47
2022-07-31T02:04:58.092Z,100314.53
2022-07-31T02:09:59.549Z,100320.16
2022-07-31T02:15:04.506Z,100312.13
2022-07-31T02:20:09.644Z,100321.47
2022-07-31T02:25:11.185Z,100308.47
2022-07-31T02:30:13.339Z,100309.72
2022-07-31T02:35:17.057Z,100306.19
2022-07-31T02:40:19.469Z,100296.09
2022-07-31T02:45:22.438Z,100316.09
2022-07-31T02:50:24.103Z,100321.53
2022-07-31T02:55:25.608Z,100307.97
2022-07-31T03:00:27.738Z,100319.44
2022-07-31T03:05:29.261Z,100311.72
2022-07-31T03:10:30.880Z,100314.63
2022-07-31T03:15:33.136Z,100299.56
2022-07-31T03:20:34.811Z,100300.97
2022-07-31T03:25:36.470Z,100293.97
2022-07-31T03:30:37.935Z,100295.13
2022-07-31T03:35:43.730Z,100297.94
2022-07-31T03:40:47.449Z,100293.13
2022-07-31T03:45:51.004Z,100303.09
2022-07-31T03:50:52.541Z,100301.53
2022-07-31T03:55:55.290Z,100307.09
2022-07-31T04:00:57.351Z,100308.88
2022-07-31T04:06:00.801Z,100323.06
2022-07-31T04:11:02.132Z,100326.44
2022-07-31T04:16:03.731Z,100321.00
2022-07-31T04:21:05.217Z,100325.19
2022-07-31T04:26:06.641Z,100328.09
2022-07-31T04:31:07.967Z,100340.50
2022-07-31T04:36:15.137Z,100333.19
2022-07-31T04:41:30.765Z,100334.56
2022-07-31T04:46:32.155Z,100326.97
2022-07-31T04:51:33.500Z,100331.63
2022-07-31T04:56:42.128Z,100324.19
2022-07-31T05:01:45.403Z,100329.53
2022-07-31T05:06:49.104Z,100329.75
2022-07-31T05:11:51.670Z,100325.78
2022-07-31T05:16:53.179Z,100331.81
2022-07-31T05:21:56.354Z,100332.63
2022-07-31T05:26:59.717Z,100326.59
2022-07-31T05:32:01.628Z,100330.53
2022-07-31T05:37:03.154Z,100329.97
2022-07-31T05:42:05.255Z,100329.06
2022-07-31T05:47:08.104Z,100319.28
2022-07-31T05:52:09.470Z,100321.63
2022-07-31T05:57:11.019Z,100329.00
2022-07-31T06:02:12.449Z,100324.00
2022-07-31T06:07:13.794Z,100328.53
2022-07-31T06:12:16.368Z,100327.88
2022-07-31T06:17:17.917Z,100338.53
2022-07-31T06:22:19.270Z,100340.56
2022-07-31T06:27:30.582Z,100344.00
2022-07-31T06:32:36.606Z,100343.59
2022-07-31T06:37:38.198Z,100325.16
2022-07-31T06:42:39.702Z,100329.88
2022-07-31T06:47:41.049Z,100329.25
2022-07-31T06:52:42.524Z,100351.63
2022-07-31T06:57:44.077Z,100340.63
2022-07-31T07:02:45.519Z,100337.38
2022-07-31T07:07:47.316Z,100347.97
2022-07-31T07:12:48.678Z,100331.78
2022-07-31T07:17:50.099Z,100338.50
2022-07-31T07:22:51.515Z,100330.56
2022-07-31T07:27:53.666Z,100324.94
2022-07-31T07:32:55.038Z,100324.72
2022-07-31T07:37:56.559Z,100328.13
2022-07-31T07:43:02.814Z,100322.34
2022-07-31T07:48:06.541Z,100324.06
2022-07-31T07:53:08.881Z,100322.81
2022-07-31T07:58:12.416Z,100310.09
2022-07-31T08:03:49.597Z,100310.56
2022-07-31T08:08:35.113Z,100313.72
2022-07-31T08:13:36.530Z,100299.50
2022-07-31T08:18:41.274Z,100307.03
2022-07-31T08:23:42.863Z,100302.03
2022-07-31T08:28:50.628Z,100307.91
2022-07-31T08:33:52.875Z,100301.81
2022-07-31T08:38:54.434Z,100306.22
2022-07-31T08:44:01.441Z,100296.16
2022-07-31T08:49:06.444Z,100292.16
2022-07-31T08:54:08.872Z,100287.69
2022-07-31T08:59:10.281Z,100293.41
2022-07-31T09:04:11.786Z,100284.13
2022-07-31T09:09:16.524Z,100273.41
2022-07-31T09:14:30.441Z,100267.53
2022-07-31T09:19:53.944Z,100259.81
2022-07-31T09:25:19.250Z,100255.31
2022-07-31T09:30:20.650Z,100247.59
2022-07-31T09:35:22.224Z,100249.66
2022-07-31T09:40:34.709Z,100234.44
2022-07-31T09:45:36.254Z,100240.59
2022-07-31T09:51:07.652Z,100233.47
2022-07-31T09:56:12.426Z,100221.88
2022-07-31T10:01:14.172Z,100210.88
2022-07-31T10:06:17.302Z,100213.41
2022-07-31T10:11:20.124Z,100211.13
2022-07-31T10:16:25.580Z,100201.19
2022-07-31T10:21:37.487Z,100202.16
2022-07-31T10:26:59.877Z,100193.75
2022-07-31T10:32:01.291Z,100195.81
2022-07-31T10:37:12.649Z,100193.50
2022-07-31T10:42:23.143Z,100197.09
2022-07-31T10:47:26.105Z,100197.34
2022-07-31T10:52:31.556Z,100192.59
2022-07-31T10:57:56.108Z,100188.41
2022-07-31T11:02:56.922Z,100173.91
2022-07-31T11:08:03.788Z,100167.66
2022-07-31T11:13:07.432Z,100165.03
2022-07-31T11:18:25.695Z,100160.56
2022-07-31T11:23:31.328Z,100154.41
2022-07-31T11:28:33.869Z,100155.56
2022-07-31T11:33:43.827Z,100146.22
2022-07-31T11:38:49.852Z,100148.22
2022-07-31T11:43:52.061Z,100154.97
2022-07-31T11:48:56.990Z,100147.75
2022-07-31T11:53:59.115Z,100140.59
2022-07-31T11:59:00.417Z,100124.63
2022-07-31T12:04:08.737Z,100109.81
2022-07-31T12:10:02.624Z,100105.75
2022-07-31T12:14:34.076Z,100091.47
2022-07-31T12:19:37.358Z,100077.28
2022-07-31T12:24:40.498Z,100066.34
2022-07-31T12:29:42.087Z,100071.28
2022-07-31T12:34:43.415Z,100062.44
2022-07-31T12:39:59.342Z,100051.53
2022-07-31T12:45:17.869Z,100044.41
2022-07-31T12:50:22.726Z,100036.06
2022-07-31T12:55:24.313Z,100031.25
2022-07-31T13:00:27.301Z,100019.75
2022-07-31T13:05:29.442Z,100015.06
2022-07-31T13:10:32.179Z,100018.06
2022-07-31T13:15:34.011Z,99996.03
2022-07-31T13:20:35.335Z,99984.41
2022-07-31T13:25:37.633Z,99985.00
2022-07-31T13:30:39.049Z,99975.38
2022-07-31T13:35:40.461Z,99983.03
2022-07-31T13:41:00.585Z,99973.22
2022-07-31T13:46:02.012Z,99966.59
2022-07-31T13:51:03.937Z,99961.56
2022-07-31T13:56:05.644Z,99959.28
2022-07-31T14:01:07.397Z,99965.19
2022-07-31T14:06:08.965Z,99965.38
2022-07-31T14:11:14.960Z,99952.66
2022-07-31T14:16:16.739Z,99950.28
2022-07-31T14:21:18.091Z,99955.00
2022-07-31T14:26:19.437Z,99948.59
2022-07-31T14:31:20.851Z,99954.22
2022-07-31T14:36:22.333Z,99951.44
2022-07-31T14:41:23.803Z,99932.88
2022-07-31T14:46:25.419Z,99936.13
2022-07-31T14:51:26.854Z,99935.94
2022-07-31T14:56:58.444Z,99931.78
2022-07-31T15:01:49.569Z,99934.56
2022-07-31T15:07:03.076Z,99936.63
2022-07-31T15:12:16.658Z,99928.34
2022-07-31T15:17:18.181Z,99926.25
2022-07-31T15:22:19.658Z,99919.03
2022-07-31T15:27:22.155Z,99928.31
2022-07-31T15:32:23.760Z,99921.03
2022-07-31T15:37:25.139Z,99919.03
2022-07-31T15:42:26.609Z,99918.66
2022-07-31T15:47:28.106Z,99920.59
2022-07-31T15:52:29.532Z,99910.75
2022-07-31T15:57:30.931Z,99902.16
2022-07-31T16:02:32.575Z,99900.88
2022-07-31T16:08:28.729Z,99893.19
2022-07-31T16:12:55.463Z,99894.66
2022-07-31T16:17:56.875Z,99889.06
2022-07-31T16:23:01.369Z,99892.91
2022-07-31T16:28:04.384Z,99879.78
2022-07-31T16:33:05.733Z,99862.19
2022-07-31T16:38:07.957Z,99870.41
2022-07-31T16:43:50.805Z,99856.69
2022-07-31T16:48:30.615Z,99855.53
2022-07-31T16:53:34.671Z,99853.00
2022-07-31T16:58:59.170Z,99847.25
2022-07-31T17:04:03.977Z,99848.91
2022-07-31T17:09:16.400Z,99854.97
2022-07-31T17:14:21.691Z,99848.63
2022-07-31T17:19:42.631Z,99846.44
2022-07-31T17:24:51.077Z,99855.34
2022-07-31T17:29:52.926Z,99853.88
2022-07-31T17:34:54.331Z,99857.97
2022-07-31T17:39:58.039Z,99857.00
2022-07-31T17:45:01.673Z,99861.25
2022-07-31T17:50:03.384Z,99860.31
2022-07-31T17:55:06.601Z,99867.31
2022-07-31T18:00:09.849Z,99873.81
2022-07-31T18:05:11.351Z,99879.78
2022-07-31T18:10:12.814Z,99875.31
2022-07-31T18:15:14.569Z,99879.06
2022-07-31T18:20:21.664Z,99894.88
2022-07-31T18:25:23.112Z,99902.47
2022-07-31T18:30:24.566Z,99904.28
2022-07-31T18:35:31.807Z,99911.31
2022-07-31T18:40:33.176Z,99910.91
2022-07-31T18:45:34.601Z,99915.97
2022-07-31T18:51:01.034Z,99909.78
2022-07-31T18:55:57.345Z,99918.88
2022-07-31T19:00:58.768Z,99918.53
2022-07-31T19:06:00.418Z,99918.19
2022-07-31T19:11:01.808Z,99923.50
2022-07-31T19:16:03.424Z,99924.94
2022-07-31T19:21:23.523Z,99927.81
2022-07-31T19:26:26.493Z,99939.97
2022-07-31T19:31:27.932Z,99938.06
2022-07-31T19:36:29.299Z,99939.66
2022-07-31T19:41:32.627Z,99946.28
2022-07-31T19:46:34.075Z,99951.91
2022-07-31T19:51:35.596Z,99958.41
2022-07-31T19:56:36.956Z,99964.03
2022-07-31T20:01:38.454Z,99966.13
2022-07-31T20:06:39.796Z,99977.19
2022-07-31T20:11:41.142Z,99973.00
2022-07-31T20:16:42.525Z,99977.16
2022-07-31T20:21:43.872Z,99982.25
2022-07-31T20:26:45.294Z,99979.00
2022-07-31T20:31:47.443Z,99986.59
2022-07-31T20:36:48.975Z,99989.56
2022-07-31T20:41:50.623Z,99990.50
2022-07-31T20:46:51.965Z,99987.03
2022-07-31T20:51:53.697Z,99999.13
2022-07-31T20:56:55.104Z,99990.56
2022-07-31T21:01:56.513Z,99987.16
2022-07-31T21:06:59.613Z,99991.19
2022-07-31T21:12:02.314Z,99992.09
2022-07-31T21:17:03.843Z,99999.06
2022-07-31T21:22:05.452Z,99996.81
2022-07-31T21:27:11.055Z,100003.34
2022-07-31T21:32:12.849Z,99999.63
2022-07-31T21:37:16.108Z,100010.75
2022-07-31T21:42:18.035Z,100007.50
2022-07-31T21:47:22.796Z,100020.38
2022-07-31T21:52:27.238Z,100011.84
2022-07-31T21:57:28.727Z,100018.72
2022-07-31T22:02:50.068Z,100026.50
2022-07-31T22:07:51.686Z,100036.19
2022-07-31T22:12:53.312Z,100041.03
2022-07-31T22:17:54.679Z,100040.22
2022-07-31T22:22:57.774Z,100045.91
2022-07-31T22:27:59.613Z,100043.41
2022-07-31T22:33:01.460Z,100038.56
2022-07-31T22:38:02.955Z,100050.81
2022-07-31T22:44:05.617Z,100052.53
2022-07-31T22:48:27.882Z,100059.25
2022-07-31T22:53:29.500Z,100054.28
2022-07-31T22:58:30.860Z,100071.91
2022-07-31T23:03:32.210Z,100074.25
2022-07-31T23:08:33.686Z,100082.69
2022-07-31T23:13:35.055Z,100088.34
2022-07-31T23:18:36.408Z,100085.47
2022-07-31T23:23:37.909Z,100097.63
2022-07-31T23:28:39.297Z,100092.63
2022-07-31T23:33:40.886Z,100092.63
2022-07-31T23:38:43.821Z,100079.91
2022-07-31T23:43:54.300Z,100083.06
2022-07-31T23:48:56.880Z,100080.78
2022-07-31T23:53:58.275Z,100087.75
2022-07-31T23:58:59.769Z,100082.97
